Tuesday, June 15, 2021 (16:59 UTC)
OPMET DATA
 
Terminal Aerodrome Forecast (TAF) and METAR
TAFs are issued by Aviation Meteorological Office, for Abu Dhabi (OMAA), Bateen (OMAD), Al Ain (OMAL), Dubai (OMDB), Al Maktoum (OMDW), Sharjah (OMSJ), Ras Al Khaimah (OMRK) and Fujairah (OMFJ) airports. These TAFs are issued every 6 hours and are valid for a 30 hour period. METARs (Aviation Routine Weather Reports) are updated hourly.
Show ICAO codes
Select OPMET type:        SEARCH   PRINT
Aviation Meteorology - National Center of Meteorology (NCM)
Telephone: +971 2 5757346 / 5053676
Email: metweb@adiamet.gov.ae
Website: www.avmet.ae
METAR OMAA 151600Z 26004KT CAVOK 36/17 Q0996 NOSIG=
METAR OMAD 151600Z 10002KT CAVOK 35/15 Q0996 NOSIG=
METAR OMAL 151600Z 27009KT 8000 NSC 38/04 Q0998 NOSIG=
METAR OMDB 151600Z 27006KT CAVOK 36/18 Q0995 NOSIG=
METAR OMDW 151600Z 26009KT CAVOK 36/12 Q0997 NOSIG=
METAR OMFJ 151600Z 30014KT 6000 NSC 43/11 Q0994 A2935=
METAR OMSJ 151600Z 26007KT CAVOK 35/20 Q0996 NOSIG=
METAR OMRK 151600Z 29004KT 8000 NSC 33/24 Q0996 A2943=
METAR OTBD 151600Z 11004KT 7000 NSC 33/27 Q0996 NOSIG=
METAR OTHH 151600Z 12003KT 100V160 7000 NSC 32/24 Q0996 NOSIG=
METAR OBBI 151600Z 31005KT CAVOK 33/17 Q0996 NOSIG=
METAR OEDF 151600Z 34004KT CAVOK 39/01 Q0996 NOSIG=
METAR OEDR 151600Z 35008KT CAVOK 38/04 Q0995 NOSIG=
METAR OEJN 151600Z 35013KT CAVOK 32/23 Q1004 NOSIG=
METAR OEMA 151600Z 24006KT 9999 FEW045 42/M02 Q1008 NOSIG=
METAR OEPA 151600Z 36008KT CAVOK 41/10 Q1001 NOSIG=
METAR OERF 151600Z 32013KT CAVOK 39/00 Q1005 NOSIG=
METAR OERK 151600Z 35010KT CAVOK 41/01 Q1005 NOSIG=
METAR OERR 151600Z 30010KT CAVOK 37/M04 Q1006 NOSIG=
METAR OERY 151600Z 36009KT CAVOK 42/M02 Q1004 NOSIG=
METAR OESH 151600Z 02004KT 5000 DU NSC 39/M01 Q1006 NOSIG=
METAR OETB 151600Z 35006KT CAVOK 34/M03 Q1009 NOSIG=
METAR OETF 151600Z 30016KT CAVOK 31/10 Q1017 NOSIG=
METAR OETR 151600Z 28010KT CAVOK 31/02 Q1010 NOSIG=
METAR OEWD 151600Z 31004KT 9000 NSC 39/06 Q1005 NOSIG=
METAR OEWJ 151600Z 32014KT CAVOK 29/20 Q1005 NOSIG=
METAR OEYN 151600Z 27020KT CAVOK 33/22 Q1001 NOSIG=
METAR OKBK 151600Z 35015KT 4000 DU NSC 43/06 Q0997 NOSIG=
METAR OOMS 151550Z 24007KT CAVOK 41/04 Q0993 NOSIG=
METAR OOSA 151550Z 14003KT 8000 FEW025 29/26 Q1000 NOSIG=
METAR OYSN NIL=
METAR OYAA NIL=
 
Tuesday, June 15, 2021 (16:59 UTC)